createdAt,value
2018-02-16T00:00:56.584Z,2.10
2018-02-16T00:03:25.675Z,2.10
2018-02-16T00:05:54.019Z,2.10
2018-02-16T00:08:22.260Z,2.10
2018-02-16T00:10:49.762Z,2.10
2018-02-16T00:13:17.569Z,2.10
2018-02-16T00:15:47.178Z,2.10
2018-02-16T00:18:18.058Z,2.10
2018-02-16T00:20:45.733Z,2.10
2018-02-16T00:23:14.386Z,2.10
2018-02-16T00:25:41.889Z,2.10
2018-02-16T00:28:17.117Z,2.10
2018-02-16T00:30:44.626Z,2.00
2018-02-16T00:33:12.158Z,2.10
2018-02-16T00:35:40.317Z,2.10
2018-02-16T00:38:09.802Z,2.10
2018-02-16T00:40:38.697Z,2.00
2018-02-16T00:43:06.551Z,2.10
2018-02-16T00:45:37.154Z,2.10
2018-02-16T00:48:05.034Z,2.00
2018-02-16T00:50:33.048Z,2.00
2018-02-16T00:53:01.522Z,2.00
2018-02-16T00:55:29.282Z,2.00
2018-02-16T00:57:57.636Z,2.00
2018-02-16T01:00:25.101Z,2.10
2018-02-16T01:02:54.040Z,2.10
2018-02-16T01:05:21.468Z,2.10
2018-02-16T01:07:48.940Z,2.20
2018-02-16T01:10:16.368Z,2.10
2018-02-16T01:12:43.823Z,2.20
2018-02-16T01:15:11.268Z,2.30
2018-02-16T01:17:38.714Z,2.20
2018-02-16T01:20:06.140Z,2.20
2018-02-16T01:22:33.988Z,2.20
2018-02-16T01:25:01.420Z,2.20
2018-02-16T01:27:28.858Z,2.10
2018-02-16T01:29:56.290Z,1.90
2018-02-16T01:32:24.128Z,1.90
2018-02-16T01:34:51.582Z,1.90
2018-02-16T01:37:19.026Z,1.90
2018-02-16T01:39:46.449Z,1.90
2018-02-16T01:42:13.871Z,2.10
2018-02-16T01:44:41.304Z,2.10
2018-02-16T01:47:08.733Z,2.00
2018-02-16T01:49:47.956Z,1.90
2018-02-16T01:52:16.208Z,1.80
2018-02-16T01:54:43.647Z,1.70
2018-02-16T01:57:11.072Z,1.60
2018-02-16T01:59:38.508Z,1.70
2018-02-16T02:02:05.992Z,1.70
2018-02-16T02:04:33.448Z,1.60
2018-02-16T02:07:00.904Z,1.60
2018-02-16T02:09:28.391Z,1.60
2018-02-16T02:11:56.264Z,1.70
2018-02-16T02:14:23.719Z,1.70
2018-02-16T02:16:51.145Z,1.70
2018-02-16T02:19:18.588Z,1.80
2018-02-16T02:21:46.025Z,1.80
2018-02-16T02:24:13.456Z,1.90
2018-02-16T02:26:40.924Z,1.80
2018-02-16T02:29:08.368Z,1.70
2018-02-16T02:31:35.812Z,1.60
2018-02-16T02:34:03.649Z,1.70
2018-02-16T02:36:31.088Z,1.70
2018-02-16T02:38:58.518Z,1.80
2018-02-16T02:41:25.957Z,1.80
2018-02-16T02:43:53.385Z,1.90
2018-02-16T02:46:20.819Z,1.80
2018-02-16T02:48:48.252Z,2.00
2018-02-16T02:51:15.699Z,2.00
2018-02-16T02:53:43.125Z,1.90
2018-02-16T02:56:10.960Z,1.90
2018-02-16T02:58:38.393Z,1.90
2018-02-16T03:01:05.869Z,1.90
2018-02-16T03:03:33.314Z,1.90
2018-02-16T03:06:00.801Z,2.00
2018-02-16T03:08:28.287Z,2.00
2018-02-16T03:10:55.720Z,2.10
2018-02-16T03:13:23.545Z,2.20
2018-02-16T03:15:50.967Z,2.20
2018-02-16T03:18:18.412Z,2.10
2018-02-16T03:20:45.844Z,2.00
2018-02-16T03:23:13.303Z,2.00
2018-02-16T03:25:40.736Z,1.90
2018-02-16T03:28:08.196Z,1.80
2018-02-16T03:30:35.618Z,1.90
2018-02-16T03:33:03.513Z,1.90
2018-02-16T03:35:30.976Z,1.90
2018-02-16T03:37:58.415Z,1.80
2018-02-16T03:40:25.846Z,1.60
2018-02-16T03:42:53.276Z,1.40
2018-02-16T03:45:21.100Z,1.30
2018-02-16T03:47:48.528Z,1.30
2018-02-16T03:50:15.988Z,1.30
2018-02-16T03:52:43.436Z,1.30
2018-02-16T03:55:10.902Z,1.30
2018-02-16T03:57:38.340Z,1.30
2018-02-16T04:00:05.791Z,1.30
2018-02-16T04:02:33.240Z,1.30
2018-02-16T04:05:00.668Z,1.30
2018-02-16T04:07:28.104Z,1.40
2018-02-16T04:09:55.540Z,1.40
2018-02-16T04:12:22.980Z,1.50
2018-02-16T04:14:50.426Z,1.40
2018-02-16T04:17:18.255Z,1.30
2018-02-16T04:19:45.675Z,1.30
2018-02-16T04:22:13.108Z,1.50
2018-02-16T04:24:40.566Z,1.60
2018-02-16T04:27:07.999Z,1.60
2018-02-16T04:29:35.416Z,1.40
2018-02-16T04:32:02.857Z,1.30
2018-02-16T04:34:30.277Z,1.20
2018-02-16T04:36:58.135Z,1.10
2018-02-16T04:39:25.960Z,0.90
2018-02-16T04:41:53.443Z,0.90
2018-02-16T04:44:20.860Z,0.90
2018-02-16T04:46:48.288Z,0.90
2018-02-16T04:49:15.718Z,1.00
2018-02-16T04:51:43.152Z,0.80
2018-02-16T04:54:10.608Z,0.70
2018-02-16T04:56:38.047Z,0.70
2018-02-16T04:59:05.489Z,0.60
2018-02-16T05:01:32.911Z,0.50
2018-02-16T05:04:00.727Z,0.30
2018-02-16T05:06:28.148Z,0.30
2018-02-16T05:08:55.588Z,0.30
2018-02-16T05:11:23.044Z,0.30
2018-02-16T05:13:50.516Z,0.20
2018-02-16T05:16:17.925Z,0.20
2018-02-16T05:18:45.397Z,0.30
2018-02-16T05:21:12.817Z,0.60
2018-02-16T05:23:40.258Z,0.50
2018-02-16T05:26:07.683Z,0.30
2018-02-16T05:28:35.508Z,0.20
2018-02-16T05:31:02.938Z,0.20
2018-02-16T05:33:30.369Z,0.20
2018-02-16T05:35:57.787Z,0.10
2018-02-16T05:38:25.232Z,-0.10
2018-02-16T05:40:52.675Z,-0.10
2018-02-16T05:43:20.125Z,-0.10
2018-02-16T05:45:47.548Z,-0.10
2018-02-16T05:48:15.383Z,0.00
2018-02-16T05:50:42.801Z,0.00
2018-02-16T05:53:10.253Z,0.00
2018-02-16T05:55:37.656Z,0.00
2018-02-16T05:58:05.100Z,0.10
2018-02-16T06:00:32.768Z,0.20
2018-02-16T06:03:00.205Z,0.20
2018-02-16T06:05:27.652Z,0.20
2018-02-16T06:07:55.101Z,0.20
2018-02-16T06:10:22.530Z,0.20
2018-02-16T06:12:50.348Z,0.30
2018-02-16T06:15:17.783Z,0.30
2018-02-16T06:17:45.234Z,0.40
2018-02-16T06:20:12.663Z,0.50
2018-02-16T06:22:40.084Z,0.60
2018-02-16T06:25:07.512Z,0.50
2018-02-16T06:27:34.943Z,0.50
2018-02-16T06:30:02.368Z,0.50
2018-02-16T06:32:30.198Z,0.80
2018-02-16T06:34:57.638Z,0.80
2018-02-16T06:37:25.072Z,0.90
2018-02-16T06:39:52.497Z,0.80
2018-02-16T06:42:19.933Z,0.90
2018-02-16T06:44:47.360Z,0.90
2018-02-16T06:47:14.796Z,0.90
2018-02-16T06:49:42.225Z,0.90
2018-02-16T06:52:09.653Z,1.00
2018-02-16T06:54:37.084Z,0.90
2018-02-16T06:57:04.528Z,0.90
2018-02-16T06:59:31.936Z,0.80
2018-02-16T07:01:59.479Z,0.80
2018-02-16T07:04:26.940Z,0.90
2018-02-16T07:06:54.348Z,1.00
2018-02-16T07:09:21.780Z,1.00
2018-02-16T07:11:49.604Z,0.90
2018-02-16T07:14:17.061Z,0.90
2018-02-16T07:16:44.496Z,1.00
2018-02-16T07:19:12.644Z,1.10
2018-02-16T07:21:40.066Z,1.20
2018-02-16T07:24:07.486Z,1.10
2018-02-16T07:26:34.916Z,1.10
2018-02-16T07:29:02.355Z,1.10
2018-02-16T07:31:30.172Z,1.20
2018-02-16T07:33:57.603Z,1.10
2018-02-16T07:36:25.025Z,1.20
2018-02-16T07:38:52.457Z,1.30
2018-02-16T07:41:19.876Z,1.30
2018-02-16T07:43:47.584Z,1.60
2018-02-16T07:46:15.007Z,1.60
2018-02-16T07:48:42.464Z,1.60
2018-02-16T07:51:09.900Z,1.60
2018-02-16T07:53:37.345Z,1.50
2018-02-16T07:56:04.778Z,1.50
2018-02-16T07:58:32.208Z,1.50
2018-02-16T08:00:59.643Z,1.50
2018-02-16T08:03:27.056Z,1.60
2018-02-16T08:05:54.476Z,1.60
2018-02-16T08:08:21.920Z,1.80
2018-02-16T08:10:49.372Z,1.90
2018-02-16T08:13:16.848Z,1.70
2018-02-16T08:15:44.320Z,1.60
2018-02-16T08:18:11.782Z,1.60
2018-02-16T08:20:46.351Z,1.60
2018-02-16T08:23:14.017Z,1.50
2018-02-16T08:25:41.892Z,1.80
2018-02-16T08:28:09.387Z,1.70
2018-02-16T08:30:37.719Z,1.80
2018-02-16T08:33:05.165Z,1.80
2018-02-16T08:35:33.264Z,2.00
2018-02-16T08:38:00.711Z,2.10
2018-02-16T08:40:28.173Z,2.10
2018-02-16T08:42:56.443Z,2.10
2018-02-16T08:45:23.928Z,2.10
2018-02-16T08:47:54.683Z,2.10
2018-02-16T08:50:24.208Z,2.10
2018-02-16T08:52:52.048Z,2.40
2018-02-16T08:55:19.479Z,2.40
2018-02-16T08:57:46.913Z,2.50
2018-02-16T09:00:14.385Z,2.30
2018-02-16T09:02:42.255Z,2.30
2018-02-16T09:05:09.675Z,2.30
2018-02-16T09:07:37.100Z,2.20
2018-02-16T09:10:04.528Z,2.00
2018-02-16T09:12:31.965Z,1.90
2018-02-16T09:14:59.393Z,1.90
2018-02-16T09:20:01.216Z,2.30
2018-02-16T09:22:28.649Z,2.30
2018-02-16T09:24:56.083Z,2.20
2018-02-16T09:27:23.525Z,2.10
2018-02-16T09:29:51.365Z,2.20
2018-02-16T09:32:18.783Z,2.20
2018-02-16T09:34:46.216Z,2.30
2018-02-16T09:37:13.645Z,2.50
2018-02-16T09:39:44.508Z,2.70
2018-02-16T09:42:11.946Z,2.70
2018-02-16T09:44:39.372Z,2.60
2018-02-16T09:47:06.792Z,2.50
2018-02-16T09:49:34.224Z,2.70
2018-02-16T09:52:02.040Z,2.90
2018-02-16T09:54:29.479Z,2.90
2018-02-16T09:56:56.901Z,2.70
2018-02-16T09:59:24.331Z,2.50
2018-02-16T10:01:51.764Z,2.60
2018-02-16T10:04:19.208Z,2.70
2018-02-16T10:06:46.636Z,2.60
2018-02-16T10:09:14.083Z,2.70
2018-02-16T10:11:41.897Z,2.90
2018-02-16T10:14:09.340Z,2.90
2018-02-16T10:16:36.768Z,2.70
2018-02-16T10:19:04.204Z,2.70
2018-02-16T10:21:31.640Z,2.70
2018-02-16T10:23:59.080Z,2.70
2018-02-16T10:26:26.505Z,2.80
2018-02-16T10:28:53.948Z,2.80
2018-02-16T10:31:21.765Z,2.90
2018-02-16T10:33:49.197Z,2.90
2018-02-16T10:36:16.627Z,2.70
2018-02-16T10:38:44.462Z,2.90
2018-02-16T10:41:11.888Z,2.90
2018-02-16T10:43:39.312Z,2.80
2018-02-16T10:46:06.739Z,2.90
2018-02-16T10:48:34.564Z,2.90
2018-02-16T10:51:01.992Z,2.90
2018-02-16T10:53:29.428Z,3.10
2018-02-16T10:55:56.852Z,3.20
2018-02-16T10:58:24.276Z,3.20
2018-02-16T11:00:57.269Z,3.30
2018-02-16T11:03:30.635Z,3.40
2018-02-16T11:05:58.062Z,3.30
2018-02-16T11:11:31.351Z,3.90
2018-02-16T11:13:58.791Z,4.10
2018-02-16T11:16:26.222Z,4.10
2018-02-16T11:18:53.659Z,4.00
2018-02-16T11:21:21.481Z,4.10
2018-02-16T11:23:48.932Z,4.10
2018-02-16T11:26:16.347Z,4.20
2018-02-16T11:28:43.780Z,4.20
2018-02-16T11:31:11.203Z,4.00
2018-02-16T11:33:38.633Z,4.00
2018-02-16T11:36:06.065Z,4.00
2018-02-16T11:38:33.891Z,4.10
2018-02-16T11:41:01.333Z,4.10
2018-02-16T11:43:28.756Z,4.30
2018-02-16T11:45:56.188Z,4.50
2018-02-16T11:48:24.012Z,4.90
2018-02-16T11:50:51.448Z,4.90
2018-02-16T11:53:18.875Z,5.00
2018-02-16T11:55:46.716Z,5.00
2018-02-16T11:58:14.144Z,5.00
2018-02-16T12:00:41.584Z,5.20
2018-02-16T12:03:09.008Z,5.30
2018-02-16T12:05:36.838Z,5.10
2018-02-16T12:08:04.264Z,5.10
2018-02-16T12:10:31.696Z,4.90
2018-02-16T12:12:59.127Z,4.80
2018-02-16T12:15:26.958Z,5.00
2018-02-16T12:17:54.383Z,5.00
2018-02-16T12:20:21.821Z,5.10
2018-02-16T12:22:49.260Z,5.30
2018-02-16T12:25:16.697Z,5.30
2018-02-16T12:27:44.125Z,5.30
2018-02-16T12:30:11.588Z,5.30
2018-02-16T12:32:39.013Z,5.40
2018-02-16T12:35:06.450Z,5.40
2018-02-16T12:37:34.277Z,5.30
2018-02-16T12:40:01.758Z,5.30
2018-02-16T12:42:29.207Z,5.30
2018-02-16T12:44:56.670Z,5.30
2018-02-16T12:47:24.105Z,5.30
2018-02-16T12:49:51.537Z,5.30
2018-02-16T12:52:18.956Z,5.40
2018-02-16T12:54:46.410Z,5.60
2018-02-16T12:57:13.828Z,5.80
2018-02-16T12:59:41.259Z,6.00
2018-02-16T13:02:08.699Z,6.00
2018-02-16T13:04:36.124Z,6.10
2018-02-16T13:07:03.564Z,6.20
2018-02-16T13:09:30.988Z,6.10
2018-02-16T13:11:58.423Z,6.00
2018-02-16T13:14:25.852Z,6.00
2018-02-16T13:16:53.294Z,6.10
2018-02-16T13:19:20.711Z,6.10
2018-02-16T13:21:48.139Z,6.00
2018-02-16T13:24:15.572Z,6.20
2018-02-16T13:26:43.409Z,6.30
2018-02-16T13:29:10.828Z,6.30
2018-02-16T13:31:38.260Z,6.40
2018-02-16T13:34:06.080Z,6.40
2018-02-16T13:36:33.519Z,6.40
2018-02-16T13:39:01.454Z,6.30
2018-02-16T13:41:29.305Z,6.40
2018-02-16T13:43:57.189Z,6.40
2018-02-16T13:46:24.619Z,6.40
2018-02-16T13:48:52.030Z,6.50
2018-02-16T13:51:19.477Z,6.60
2018-02-16T13:53:46.940Z,6.60
2018-02-16T13:56:14.348Z,6.60
2018-02-16T13:58:41.780Z,6.70
2018-02-16T14:01:09.217Z,6.70
2018-02-16T14:03:36.655Z,6.80
2018-02-16T14:06:04.103Z,6.80
2018-02-16T14:08:31.532Z,6.80
2018-02-16T14:10:59.346Z,6.80
2018-02-16T14:13:26.789Z,6.80
2018-02-16T14:15:54.220Z,7.00
2018-02-16T14:18:22.048Z,7.10
2018-02-16T14:20:49.468Z,7.10
2018-02-16T14:23:16.884Z,7.10
2018-02-16T14:25:44.310Z,7.10
2018-02-16T14:28:11.735Z,7.20
2018-02-16T14:30:39.165Z,7.30
2018-02-16T14:33:07.000Z,7.40
2018-02-16T14:35:34.423Z,7.40
2018-02-16T14:38:01.866Z,7.40
2018-02-16T14:40:29.297Z,7.40
2018-02-16T14:42:56.724Z,7.40
2018-02-16T14:45:24.160Z,7.30
2018-02-16T14:47:51.584Z,7.30
2018-02-16T14:50:19.014Z,7.40
2018-02-16T14:52:46.827Z,7.40
2018-02-16T14:55:14.257Z,7.40
2018-02-16T14:57:41.680Z,7.50
2018-02-16T15:00:10.148Z,7.50
2018-02-16T15:02:37.575Z,7.50
2018-02-16T15:05:05.004Z,7.60
2018-02-16T15:07:32.438Z,7.60
2018-02-16T15:10:00.270Z,7.70
2018-02-16T15:12:27.693Z,7.70
2018-02-16T15:14:55.124Z,7.60
2018-02-16T15:17:22.552Z,7.60
2018-02-16T15:19:49.995Z,7.50
2018-02-16T15:22:18.603Z,7.50
2018-02-16T15:24:46.028Z,7.50
2018-02-16T15:27:13.460Z,7.50
2018-02-16T15:29:40.891Z,7.50
2018-02-16T15:32:08.536Z,7.50
2018-02-16T15:34:35.972Z,7.30
2018-02-16T15:37:03.400Z,7.20
2018-02-16T15:39:30.849Z,7.10
2018-02-16T15:41:58.284Z,7.10
2018-02-16T15:44:25.716Z,7.00
2018-02-16T15:46:53.169Z,6.90
2018-02-16T15:49:20.592Z,6.80
2018-02-16T15:51:48.023Z,6.70
2018-02-16T15:54:15.449Z,6.70
2018-02-16T15:56:42.871Z,6.60
2018-02-16T15:59:10.951Z,6.60
2018-02-16T16:01:38.386Z,6.50
2018-02-16T16:04:05.812Z,6.50
2018-02-16T16:06:33.260Z,6.30
2018-02-16T16:09:01.080Z,6.20
2018-02-16T16:11:28.517Z,6.20
2018-02-16T16:13:56.201Z,6.20
2018-02-16T16:16:23.620Z,6.10
2018-02-16T16:18:51.065Z,6.10
2018-02-16T16:21:18.492Z,6.10
2018-02-16T16:23:45.928Z,6.00
2018-02-16T16:26:13.355Z,6.00
2018-02-16T16:28:40.790Z,6.00
2018-02-16T16:31:08.212Z,6.00
2018-02-16T16:33:35.654Z,5.80
2018-02-16T16:36:03.080Z,5.80
2018-02-16T16:38:30.512Z,5.70
2018-02-16T16:40:57.938Z,5.70
2018-02-16T16:43:25.364Z,5.50
2018-02-16T16:45:52.793Z,5.40
2018-02-16T16:48:20.289Z,5.30
2018-02-16T16:50:47.712Z,5.30
2018-02-16T16:53:16.143Z,5.10
2018-02-16T16:55:43.579Z,5.00
2018-02-16T16:58:10.999Z,4.80
2018-02-16T17:00:38.423Z,4.60
2018-02-16T17:03:05.912Z,4.50
2018-02-16T17:05:33.348Z,4.30
2018-02-16T17:08:00.800Z,4.20
2018-02-16T17:10:28.631Z,4.00
2018-02-16T17:12:56.859Z,4.00
2018-02-16T17:15:24.292Z,3.90
2018-02-16T17:17:52.111Z,3.80
2018-02-16T17:20:19.549Z,3.80
2018-02-16T17:22:46.985Z,3.80
2018-02-16T17:25:14.427Z,3.70
2018-02-16T17:27:42.248Z,3.50
2018-02-16T17:30:09.712Z,3.50
2018-02-16T17:32:37.231Z,3.40
2018-02-16T17:35:04.676Z,3.40
2018-02-16T17:37:32.112Z,3.40
2018-02-16T17:39:59.557Z,3.30
2018-02-16T17:42:26.980Z,3.30
2018-02-16T17:44:54.404Z,3.10
2018-02-16T17:47:21.924Z,2.90
2018-02-16T17:49:49.347Z,2.90
2018-02-16T17:52:16.776Z,2.90
2018-02-16T17:54:44.195Z,3.00
2018-02-16T17:57:11.623Z,3.20
2018-02-16T17:59:39.049Z,3.20
2018-02-16T18:02:06.504Z,3.00
2018-02-16T18:04:33.940Z,2.90
2018-02-16T18:07:01.372Z,2.90
2018-02-16T18:09:28.797Z,3.10
2018-02-16T18:11:56.242Z,3.50
2018-02-16T18:14:23.659Z,3.60
2018-02-16T18:16:51.494Z,3.60
2018-02-16T18:19:18.921Z,3.60
2018-02-16T18:21:46.360Z,3.60
2018-02-16T18:24:13.782Z,3.60
2018-02-16T18:26:41.223Z,3.40
2018-02-16T18:29:08.646Z,3.30
2018-02-16T18:31:36.076Z,3.30
2018-02-16T18:34:03.499Z,3.20
2018-02-16T18:36:30.948Z,3.20
2018-02-16T18:38:58.376Z,3.30
2018-02-16T18:41:25.808Z,3.30
2018-02-16T18:43:53.228Z,3.10
2018-02-16T18:46:20.660Z,3.20
2018-02-16T18:48:48.113Z,3.30
2018-02-16T18:51:15.546Z,3.20
2018-02-16T18:53:42.970Z,3.20
2018-02-16T18:56:10.814Z,3.10
2018-02-16T18:58:38.260Z,3.10
2018-02-16T19:01:05.708Z,3.10
2018-02-16T19:03:33.136Z,3.10
2018-02-16T19:06:00.568Z,3.00
2018-02-16T19:08:28.000Z,2.90
2018-02-16T19:10:55.458Z,3.00
2018-02-16T19:13:22.879Z,3.20
2018-02-16T19:15:50.323Z,3.20
2018-02-16T19:18:17.887Z,2.90
2018-02-16T19:20:45.366Z,2.40
2018-02-16T19:23:12.789Z,1.90
2018-02-16T19:25:40.249Z,1.60
2018-02-16T19:28:07.665Z,1.50
2018-02-16T19:30:35.725Z,1.60
2018-02-16T19:33:03.167Z,1.60
2018-02-16T19:35:30.596Z,1.30
2018-02-16T19:37:58.304Z,1.10
2018-02-16T19:40:25.915Z,0.90
2018-02-16T19:42:53.348Z,0.80
2018-02-16T19:45:21.250Z,0.80
2018-02-16T19:47:49.140Z,0.80
2018-02-16T19:50:16.824Z,0.80
2018-02-16T19:52:44.380Z,1.20
2018-02-16T19:55:12.209Z,1.70
2018-02-16T19:57:40.688Z,1.70
2018-02-16T20:00:08.100Z,1.30
2018-02-16T20:02:35.531Z,1.20
2018-02-16T20:05:02.985Z,1.10
2018-02-16T20:07:30.956Z,1.00
2018-02-16T20:09:58.444Z,0.90
2018-02-16T20:12:25.884Z,0.60
2018-02-16T20:14:54.185Z,0.50
2018-02-16T20:17:21.687Z,0.50
2018-02-16T20:19:49.453Z,0.70
2018-02-16T20:22:17.340Z,0.80
2018-02-16T20:24:45.164Z,0.70
2018-02-16T20:27:12.871Z,0.70
2018-02-16T20:29:40.315Z,0.50
2018-02-16T20:32:07.744Z,0.30
2018-02-16T20:34:35.163Z,0.30
2018-02-16T20:37:02.828Z,0.50
2018-02-16T20:39:30.287Z,0.50
2018-02-16T20:41:57.715Z,0.40
2018-02-16T20:44:25.280Z,0.40
2018-02-16T20:46:53.112Z,0.20
2018-02-16T20:49:20.532Z,0.20
2018-02-16T20:51:48.043Z,0.10
2018-02-16T20:54:15.466Z,0.00
2018-02-16T20:56:42.905Z,-0.10
2018-02-16T20:59:10.340Z,-0.20
2018-02-16T21:01:37.785Z,-0.20
2018-02-16T21:04:05.237Z,0.00
2018-02-16T21:06:32.669Z,0.00
2018-02-16T21:09:00.097Z,-0.10
2018-02-16T21:11:27.527Z,-0.30
2018-02-16T21:13:54.955Z,-0.40
2018-02-16T21:16:22.792Z,-0.20
2018-02-16T21:18:50.232Z,-0.20
2018-02-16T21:21:17.696Z,-0.20
2018-02-16T21:23:45.152Z,0.20
2018-02-16T21:26:13.177Z,0.50
2018-02-16T21:28:45.630Z,0.90
2018-02-16T21:31:13.108Z,0.90
2018-02-16T21:33:40.532Z,0.90
2018-02-16T21:36:07.955Z,0.80
2018-02-16T21:38:35.393Z,0.90
2018-02-16T21:41:02.814Z,0.80
2018-02-16T21:43:30.264Z,0.40
2018-02-16T21:45:57.700Z,0.20
2018-02-16T21:48:25.120Z,0.10
2018-02-16T21:50:52.653Z,0.10
2018-02-16T21:53:20.478Z,0.10
2018-02-16T21:55:47.897Z,0.10
2018-02-16T21:58:15.331Z,0.10
2018-02-16T22:00:43.153Z,0.30
2018-02-16T22:03:10.605Z,0.40
2018-02-16T22:05:38.028Z,0.60
2018-02-16T22:08:05.463Z,0.80
2018-02-16T22:10:32.900Z,0.80
2018-02-16T22:13:00.319Z,0.80
2018-02-16T22:15:27.769Z,0.90
2018-02-16T22:17:55.196Z,0.90
2018-02-16T22:20:23.067Z,1.10
2018-02-16T22:22:50.908Z,1.20
2018-02-16T22:25:18.367Z,1.20
2018-02-16T22:27:45.845Z,1.20
2018-02-16T22:30:22.420Z,1.20
2018-02-16T22:32:49.867Z,1.10
2018-02-16T22:35:17.324Z,1.10
2018-02-16T22:37:44.849Z,1.10
2018-02-16T22:40:12.274Z,1.10
2018-02-16T22:42:39.866Z,1.10
2018-02-16T22:45:07.475Z,1.10
2018-02-16T22:47:35.320Z,1.10
2018-02-16T22:50:03.157Z,1.10
2018-02-16T22:52:30.609Z,1.10
2018-02-16T22:54:58.046Z,1.10
2018-02-16T22:57:25.505Z,1.10
2018-02-16T22:59:52.955Z,1.10
2018-02-16T23:02:20.397Z,1.00
2018-02-16T23:04:47.849Z,1.10
2018-02-16T23:07:15.306Z,1.10
2018-02-16T23:09:42.781Z,1.10
2018-02-16T23:12:11.044Z,1.10
2018-02-16T23:14:38.524Z,1.10
2018-02-16T23:17:05.961Z,1.00
2018-02-16T23:19:33.412Z,0.90
2018-02-16T23:22:00.854Z,0.80
2018-02-16T23:24:28.428Z,0.80
2018-02-16T23:26:55.847Z,0.90
2018-02-16T23:29:23.663Z,1.00
2018-02-16T23:31:51.117Z,1.00
2018-02-16T23:34:18.557Z,0.90
2018-02-16T23:36:46.022Z,0.60
2018-02-16T23:39:13.460Z,0.40
2018-02-16T23:41:40.878Z,0.60
2018-02-16T23:44:08.257Z,0.70
2018-02-16T23:46:35.681Z,0.80
2018-02-16T23:49:03.109Z,0.80
2018-02-16T23:51:30.938Z,0.80
2018-02-16T23:53:58.408Z,0.80
2018-02-16T23:56:25.864Z,0.70
2018-02-16T23:58:53.548Z,0.70
